Temperatura - Umidità - Pioggia orarie del 23-01-2021

Intensità - Direzione vento orarie del 23-01-2021

Dati orari da stazione meteo del 23-01-2021

Nome Stazione Data Ora Temperatura [°C] Umidità [%] Pioggia [mm] Intensità vento[km/h] Direzione vento [°]
Savigliano 22-01-2021 01:00 1.4 88.9 0 0 271
Savigliano 22-01-2021 02:00 1.6 88.5 0 1.1 202
Savigliano 22-01-2021 03:00 2.4 89.2 0 0 142
Savigliano 22-01-2021 04:00 2.4 90 0 0 142
Savigliano 22-01-2021 05:00 2.3 90.4 0 0 142
Savigliano 22-01-2021 06:00 2.1 92.5 0 0.4 96
Savigliano 22-01-2021 07:00 2.1 93.8 0 0 12
Savigliano 22-01-2021 08:00 2 94 0 0 12
Savigliano 22-01-2021 09:00 2.1 93.7 0 0.4 13
Savigliano 22-01-2021 10:00 1.7 89.9 0 0.4 286
Savigliano 22-01-2021 11:00 1.7 88.8 0 0.4 342
Savigliano 22-01-2021 12:00 1.8 89.1 0 0.4 292
Savigliano 22-01-2021 13:00 2 90.2 0 2.2 205
Savigliano 22-01-2021 14:00 1.8 89.1 0 1.8 177
Savigliano 22-01-2021 15:00 1.8 90.3 0 1.8 177
Savigliano 22-01-2021 16:00 1.1 93 0.1 6.1 222
Savigliano 22-01-2021 17:00 -1 93.8 0.2 2.9 227
Savigliano 22-01-2021 18:00 -0.9 94.3 0.2 0.7 255
Savigliano 22-01-2021 19:00 -1.1 94.6 0.3 1.1 267
Savigliano 22-01-2021 20:00 -1.2 94.9 0.6 0.7 275
Savigliano 22-01-2021 21:00 -1.1 92.9 0.4 0 274
Savigliano 22-01-2021 22:00 -1.1 92.8 0.2 0 274
Savigliano 22-01-2021 23:00 -1.1 92.9 0 0.4 273
Savigliano 23-01-2021 00:00 -1 93 0 0 273
Savigliano 23-01-2021 01:00 -0.8 93.1 0 0.4 272
Savigliano 23-01-2021 02:00 -0.6 93.3 0 1.4 264
Savigliano 23-01-2021 03:00 -0.5 93.3 0 1.8 187
Savigliano 23-01-2021 04:00 -0.3 93.3 0 2.2 177
Savigliano 23-01-2021 05:00 0.5 93.5 0 2.2 168
Savigliano 23-01-2021 06:00 0.8 94.7 0.1 2.9 172
Savigliano 23-01-2021 07:00 0.7 94.3 0 1.8 152
Savigliano 23-01-2021 08:00 1.4 93.9 0 2.5 140
Savigliano 23-01-2021 09:00 1.6 91.6 0 2.9 159
Savigliano 23-01-2021 10:00 1.9 89.4 0 3.6 156
Savigliano 23-01-2021 11:00 2.4 84.1 0 4.7 163
Savigliano 22-01-2021 13:05 0 0 0.1 0 0
Savigliano 22-01-2021 13:10 0 0 0.1 0 0
Savigliano 22-01-2021 13:15 0 0 0.1 0 0
Savigliano 22-01-2021 13:25 0 0 0.2 0 0
Savigliano 22-01-2021 13:30 0 0 0.1 0 0
Savigliano 22-01-2021 13:35 0 0 0.1 0 0
Savigliano 22-01-2021 14:30 0 0 0.1 0 0
Savigliano 22-01-2021 14:35 0 0 0.1 0 0
Savigliano 22-01-2021 14:50 0 0 0.1 0 0
Savigliano 22-01-2021 15:05 0 0 0.1 0 0
Savigliano 22-01-2021 15:15 0 0 0.2 0 0
Savigliano 22-01-2021 15:20 0 0 0.3 0 0
Savigliano 22-01-2021 15:25 0 0 0.2 0 0
Savigliano 22-01-2021 15:30 0 0 0.2 0 0
Savigliano 22-01-2021 15:35 0 0 0.2 0 0
Savigliano 22-01-2021 15:40 0 0 0.1 0 0
Savigliano 22-01-2021 15:45 0 0 0.1 0 0
Savigliano 22-01-2021 16:05 0 0 0.1 0 0
Savigliano 22-01-2021 16:10 0 0 0.2 0 0
Savigliano 22-01-2021 16:15 0 0 0.5 0 0
Savigliano 22-01-2021 16:20 0 0 1.3 0 0
Savigliano 22-01-2021 16:25 0 0 0.5 0 0
Savigliano 22-01-2021 16:30 0 0 0.4 0 0
Savigliano 22-01-2021 16:35 0 0 0.2 0 0
Savigliano 22-01-2021 16:40 0 0 0.6 0 0
Savigliano 22-01-2021 16:45 0 0 0.2 0 0
Savigliano 22-01-2021 16:50 0 0 0.3 0 0
Savigliano 22-01-2021 16:55 0 0 0.5 0 0
Savigliano 22-01-2021 17:05 0 0 0.3 0 0
Savigliano 22-01-2021 17:10 0 0 0.2 0 0
Savigliano 22-01-2021 17:15 0 0 0.1 0 0
Savigliano 22-01-2021 17:40 0 0 0.2 0 0
Savigliano 22-01-2021 17:45 0 0 0.2 0 0
Savigliano 22-01-2021 17:50 0 0 0.2 0 0
Savigliano 22-01-2021 17:55 0 0 0.2 0 0
Savigliano 22-01-2021 18:05 0 0 0.2 0 0
Savigliano 22-01-2021 18:10 0 0 0.2 0 0
Savigliano 22-01-2021 18:15 0 0 0.1 0 0
Savigliano 22-01-2021 18:20 0 0 0.2 0 0
Savigliano 22-01-2021 18:25 0 0 0.2 0 0
Savigliano 22-01-2021 18:30 0 0 0.2 0 0
Savigliano 22-01-2021 18:35 0 0 0.4 0 0
Savigliano 22-01-2021 18:40 0 0 0.3 0 0
Savigliano 22-01-2021 18:45 0 0 0.4 0 0
Savigliano 22-01-2021 18:50 0 0 0.3 0 0
Savigliano 22-01-2021 18:55 0 0 0.3 0 0
Savigliano 22-01-2021 19:05 0 0 0.2 0 0
Savigliano 22-01-2021 19:10 0 0 0.1 0 0
Savigliano 22-01-2021 19:15 0 0 1 0 0
Savigliano 22-01-2021 19:20 0 0 0.4 0 0
Savigliano 22-01-2021 19:25 0 0 0.6 0 0
Savigliano 22-01-2021 19:30 0 0 0.4 0 0
Savigliano 22-01-2021 19:35 0 0 0.1 0 0
Savigliano 22-01-2021 19:40 0 0 0.1 0 0
Savigliano 22-01-2021 19:45 0 0 0.2 0 0
Savigliano 22-01-2021 19:50 0 0 0.5 0 0
Savigliano 22-01-2021 19:55 0 0 0.5 0 0
Savigliano 22-01-2021 20:05 0 0 0.4 0 0
Savigliano 22-01-2021 20:10 0 0 0.7 0 0
Savigliano 22-01-2021 20:15 0 0 0.4 0 0
Savigliano 22-01-2021 20:20 0 0 0.4 0 0
Savigliano 22-01-2021 20:25 0 0 0.8 0 0
Savigliano 22-01-2021 20:30 0 0 0.5 0 0
Savigliano 22-01-2021 20:35 0 0 0.4 0 0
Savigliano 22-01-2021 20:40 0 0 0.5 0 0
Savigliano 22-01-2021 20:45 0 0 0.5 0 0
Savigliano 22-01-2021 20:50 0 0 0.2 0 0
Savigliano 22-01-2021 20:55 0 0 0.4 0 0
Savigliano 22-01-2021 21:05 0 0 0.3 0 0
Savigliano 22-01-2021 21:10 0 0 0.2 0 0
Savigliano 22-01-2021 21:15 0 0 0.1 0 0
Savigliano 22-01-2021 21:20 0 0 0.1 0 0
Savigliano 22-01-2021 21:25 0 0 0.1 0 0
Savigliano 22-01-2021 21:30 0 0 0.1 0 0
Savigliano 22-01-2021 21:35 0 0 0.1 0 0
Savigliano 22-01-2021 21:40 0 0 0.2 0 0
Savigliano 22-01-2021 21:45 0 0 0.2 0 0
Savigliano 22-01-2021 21:50 0 0 0.2 0 0
Savigliano 22-01-2021 21:55 0 0 0.1 0 0
Savigliano 22-01-2021 22:05 0 0 0.1 0 0
Savigliano 22-01-2021 22:10 0 0 0.1 0 0
Savigliano 22-01-2021 22:15 0 0 0.1 0 0
Savigliano 22-01-2021 22:20 0 0 0.1 0 0
Savigliano 22-01-2021 22:25 0 0 0.1 0 0
Savigliano 22-01-2021 22:30 0 0 0.1 0 0
Savigliano 22-01-2021 22:35 0 0 0.2 0 0
Savigliano 22-01-2021 22:40 0 0 0.1 0 0
Savigliano 22-01-2021 22:45 0 0 0.1 0 0
Savigliano 22-01-2021 22:55 0 0 0.1 0 0
Savigliano 22-01-2021 23:05 0 0 0.1 0 0
Savigliano 22-01-2021 23:10 0 0 0.1 0 0
Savigliano 22-01-2021 23:15 0 0 0.1 0 0
Savigliano 22-01-2021 23:25 0 0 0.1 0 0
Savigliano 22-01-2021 23:30 0 0 0.1 0 0
Savigliano 22-01-2021 23:35 0 0 0.1 0 0
Savigliano 22-01-2021 23:40 0 0 0.1 0 0
Savigliano 22-01-2021 23:45 0 0 0.1 0 0
Savigliano 22-01-2021 23:50 0 0 0.1 0 0
Savigliano 22-01-2021 23:55 0 0 0.1 0 0
Savigliano 23-01-2021 00:05 0 0 0.1 0 0
Savigliano 23-01-2021 00:15 0 0 0.1 0 0
Savigliano 23-01-2021 00:20 0 0 0.1 0 0
Savigliano 23-01-2021 00:25 0 0 0.1 0 0
Savigliano 23-01-2021 00:35 0 0 0.1 0 0
Savigliano 23-01-2021 00:40 0 0 0.1 0 0
Savigliano 23-01-2021 00:55 0 0 0.1 0 0
Savigliano 23-01-2021 01:05 0 0 0.1 0 0

Riassuntivo giornaliero del 23-01-2021